sensor_id;sensor_type;location;lat;lon;timestamp;temperature;humidity
16513;DHT22;8369;48.030;11.598;2023-02-23T00:01:23;6.40;99.90
16513;DHT22;8369;48.030;11.598;2023-02-23T00:03:52;6.40;99.90
16513;DHT22;8369;48.030;11.598;2023-02-23T00:06:19;6.40;99.90
16513;DHT22;8369;48.030;11.598;2023-02-23T00:08:46;6.40;99.90
16513;DHT22;8369;48.030;11.598;2023-02-23T00:11:14;6.40;99.90
16513;DHT22;8369;48.030;11.598;2023-02-23T00:13:42;6.40;99.90
16513;DHT22;8369;48.030;11.598;2023-02-23T00:16:22;6.40;99.90
16513;DHT22;8369;48.030;11.598;2023-02-23T00:18:51;6.40;99.90
16513;DHT22;8369;48.030;11.598;2023-02-23T00:21:27;6.40;99.90
16513;DHT22;8369;48.030;11.598;2023-02-23T00:24:07;6.40;99.90
16513;DHT22;8369;48.030;11.598;2023-02-23T00:26:39;6.40;99.90
16513;DHT22;8369;48.030;11.598;2023-02-23T00:29:12;6.40;99.90
16513;DHT22;8369;48.030;11.598;2023-02-23T00:31:43;6.40;99.90
16513;DHT22;8369;48.030;11.598;2023-02-23T00:34:11;6.40;99.90
16513;DHT22;8369;48.030;11.598;2023-02-23T00:36:39;6.40;99.90
16513;DHT22;8369;48.030;11.598;2023-02-23T00:39:10;6.40;99.90
16513;DHT22;8369;48.030;11.598;2023-02-23T00:41:57;6.30;99.90
16513;DHT22;8369;48.030;11.598;2023-02-23T00:44:28;6.30;99.90
16513;DHT22;8369;48.030;11.598;2023-02-23T00:46:56;6.30;99.90
16513;DHT22;8369;48.030;11.598;2023-02-23T00:49:24;6.30;99.90
16513;DHT22;8369;48.030;11.598;2023-02-23T00:51:51;6.30;99.90
16513;DHT22;8369;48.030;11.598;2023-02-23T00:54:19;6.30;99.90
16513;DHT22;8369;48.030;11.598;2023-02-23T00:56:50;6.30;99.90
16513;DHT22;8369;48.030;11.598;2023-02-23T00:59:17;6.30;99.90
16513;DHT22;8369;48.030;11.598;2023-02-23T01:01:43;6.30;99.90
16513;DHT22;8369;48.030;11.598;2023-02-23T01:04:10;6.30;99.90
16513;DHT22;8369;48.030;11.598;2023-02-23T01:06:37;6.30;99.90
16513;DHT22;8369;48.030;11.598;2023-02-23T01:09:09;6.30;99.90
16513;DHT22;8369;48.030;11.598;2023-02-23T01:11:38;6.30;99.90
16513;DHT22;8369;48.030;11.598;2023-02-23T01:14:06;6.30;99.90
16513;DHT22;8369;48.030;11.598;2023-02-23T01:16:33;6.30;99.90
16513;DHT22;8369;48.030;11.598;2023-02-23T01:19:02;6.30;99.90
16513;DHT22;8369;48.030;11.598;2023-02-23T01:21:34;6.30;99.90
16513;DHT22;8369;48.030;11.598;2023-02-23T01:24:01;6.40;99.90
16513;DHT22;8369;48.030;11.598;2023-02-23T01:26:30;6.40;99.90
16513;DHT22;8369;48.030;11.598;2023-02-23T01:29:01;6.40;99.90
16513;DHT22;8369;48.030;11.598;2023-02-23T01:31:29;6.40;99.90
16513;DHT22;8369;48.030;11.598;2023-02-23T01:33:58;6.40;99.90
16513;DHT22;8369;48.030;11.598;2023-02-23T01:36:31;6.40;99.90
16513;DHT22;8369;48.030;11.598;2023-02-23T01:39:00;6.40;99.90
16513;DHT22;8369;48.030;11.598;2023-02-23T01:41:28;6.40;99.90
16513;DHT22;8369;48.030;11.598;2023-02-23T01:46:41;6.40;99.90
16513;DHT22;8369;48.030;11.598;2023-02-23T01:49:09;6.40;99.90
16513;DHT22;8369;48.030;11.598;2023-02-23T01:51:44;6.40;99.90
16513;DHT22;8369;48.030;11.598;2023-02-23T01:54:16;6.40;99.90
16513;DHT22;8369;48.030;11.598;2023-02-23T01:56:46;6.50;99.90
16513;DHT22;8369;48.030;11.598;2023-02-23T01:59:15;6.40;99.90
16513;DHT22;8369;48.030;11.598;2023-02-23T02:01:42;6.50;99.90
16513;DHT22;8369;48.030;11.598;2023-02-23T02:04:10;6.50;99.90
16513;DHT22;8369;48.030;11.598;2023-02-23T02:06:43;6.50;99.90
16513;DHT22;8369;48.030;11.598;2023-02-23T02:09:14;6.50;99.90
16513;DHT22;8369;48.030;11.598;2023-02-23T02:11:44;6.50;99.90
16513;DHT22;8369;48.030;11.598;2023-02-23T02:14:26;6.50;99.90
16513;DHT22;8369;48.030;11.598;2023-02-23T02:26:28;6.50;99.90
16513;DHT22;8369;48.030;11.598;2023-02-23T02:37:46;6.50;99.90
16513;DHT22;8369;48.030;11.598;2023-02-23T02:43:07;6.50;99.90
16513;DHT22;8369;48.030;11.598;2023-02-23T02:45:51;6.60;99.90
16513;DHT22;8369;48.030;11.598;2023-02-23T02:48:56;6.60;99.90
16513;DHT22;8369;48.030;11.598;2023-02-23T02:51:27;6.60;99.90
16513;DHT22;8369;48.030;11.598;2023-02-23T02:56:53;6.60;99.90
16513;DHT22;8369;48.030;11.598;2023-02-23T02:59:23;6.60;99.90
16513;DHT22;8369;48.030;11.598;2023-02-23T03:02:18;6.60;99.90
16513;DHT22;8369;48.030;11.598;2023-02-23T03:05:26;6.70;99.90
16513;DHT22;8369;48.030;11.598;2023-02-23T03:11:11;6.70;99.90
16513;DHT22;8369;48.030;11.598;2023-02-23T03:22:57;6.60;99.90
16513;DHT22;8369;48.030;11.598;2023-02-23T03:25:48;6.60;99.90
16513;DHT22;8369;48.030;11.598;2023-02-23T03:28:53;6.60;99.90
16513;DHT22;8369;48.030;11.598;2023-02-23T03:31:47;6.60;99.90
16513;DHT22;8369;48.030;11.598;2023-02-23T03:34:50;6.60;99.90
16513;DHT22;8369;48.030;11.598;2023-02-23T03:37:44;6.60;99.90
16513;DHT22;8369;48.030;11.598;2023-02-23T03:40:36;6.60;99.90
16513;DHT22;8369;48.030;11.598;2023-02-23T03:43:25;6.60;99.90
16513;DHT22;8369;48.030;11.598;2023-02-23T03:46:16;6.60;99.90
16513;DHT22;8369;48.030;11.598;2023-02-23T03:49:06;6.60;99.90
16513;DHT22;8369;48.030;11.598;2023-02-23T03:51:56;6.50;99.90
16513;DHT22;8369;48.030;11.598;2023-02-23T03:54:48;6.50;99.90
16513;DHT22;8369;48.030;11.598;2023-02-23T03:57:37;6.50;99.90
16513;DHT22;8369;48.030;11.598;2023-02-23T04:00:27;6.50;99.90
16513;DHT22;8369;48.030;11.598;2023-02-23T04:03:15;6.40;99.90
16513;DHT22;8369;48.030;11.598;2023-02-23T04:06:02;6.40;99.90
16513;DHT22;8369;48.030;11.598;2023-02-23T04:08:48;6.40;99.90
16513;DHT22;8369;48.030;11.598;2023-02-23T04:11:45;6.40;99.90
16513;DHT22;8369;48.030;11.598;2023-02-23T04:14:40;6.30;99.90
16513;DHT22;8369;48.030;11.598;2023-02-23T04:17:08;6.30;99.90
16513;DHT22;8369;48.030;11.598;2023-02-23T04:19:35;6.30;99.90
16513;DHT22;8369;48.030;11.598;2023-02-23T04:22:02;6.20;99.90
16513;DHT22;8369;48.030;11.598;2023-02-23T04:24:28;6.20;99.90
16513;DHT22;8369;48.030;11.598;2023-02-23T04:26:55;6.20;99.90
16513;DHT22;8369;48.030;11.598;2023-02-23T04:29:22;6.20;99.90
16513;DHT22;8369;48.030;11.598;2023-02-23T04:31:49;6.20;99.90
16513;DHT22;8369;48.030;11.598;2023-02-23T04:34:19;6.20;99.90
16513;DHT22;8369;48.030;11.598;2023-02-23T04:36:46;6.20;99.90
16513;DHT22;8369;48.030;11.598;2023-02-23T04:39:12;6.10;99.90
16513;DHT22;8369;48.030;11.598;2023-02-23T04:41:39;6.10;99.90
16513;DHT22;8369;48.030;11.598;2023-02-23T04:44:09;6.10;99.90
16513;DHT22;8369;48.030;11.598;2023-02-23T04:46:35;6.10;99.90
16513;DHT22;8369;48.030;11.598;2023-02-23T04:49:02;6.10;99.90
16513;DHT22;8369;48.030;11.598;2023-02-23T04:51:29;6.00;99.90
16513;DHT22;8369;48.030;11.598;2023-02-23T04:53:58;6.00;99.90
16513;DHT22;8369;48.030;11.598;2023-02-23T04:56:27;6.00;99.90
16513;DHT22;8369;48.030;11.598;2023-02-23T04:58:54;6.00;99.90
16513;DHT22;8369;48.030;11.598;2023-02-23T05:01:20;6.00;99.90
16513;DHT22;8369;48.030;11.598;2023-02-23T05:03:53;6.00;99.90
16513;DHT22;8369;48.030;11.598;2023-02-23T05:06:20;6.00;99.90
16513;DHT22;8369;48.030;11.598;2023-02-23T05:08:47;6.00;99.90
16513;DHT22;8369;48.030;11.598;2023-02-23T05:11:14;6.00;99.90
16513;DHT22;8369;48.030;11.598;2023-02-23T05:13:41;6.00;99.90
16513;DHT22;8369;48.030;11.598;2023-02-23T05:16:09;6.00;99.90
16513;DHT22;8369;48.030;11.598;2023-02-23T05:18:38;5.90;99.90
16513;DHT22;8369;48.030;11.598;2023-02-23T05:21:07;5.90;99.90
16513;DHT22;8369;48.030;11.598;2023-02-23T05:23:34;5.90;99.90
16513;DHT22;8369;48.030;11.598;2023-02-23T05:26:03;5.90;99.90
16513;DHT22;8369;48.030;11.598;2023-02-23T05:28:32;5.90;99.90
16513;DHT22;8369;48.030;11.598;2023-02-23T05:31:00;5.80;99.90
16513;DHT22;8369;48.030;11.598;2023-02-23T05:33:29;5.80;99.90
16513;DHT22;8369;48.030;11.598;2023-02-23T05:35:56;5.80;99.90
16513;DHT22;8369;48.030;11.598;2023-02-23T05:38:24;5.80;99.90
16513;DHT22;8369;48.030;11.598;2023-02-23T05:40:50;5.80;99.90
16513;DHT22;8369;48.030;11.598;2023-02-23T05:43:16;5.80;99.90
16513;DHT22;8369;48.030;11.598;2023-02-23T05:45:43;5.80;99.90
16513;DHT22;8369;48.030;11.598;2023-02-23T05:48:10;5.80;99.90
16513;DHT22;8369;48.030;11.598;2023-02-23T05:50:37;5.70;99.90
16513;DHT22;8369;48.030;11.598;2023-02-23T05:53:03;5.80;99.90
16513;DHT22;8369;48.030;11.598;2023-02-23T05:55:30;5.70;99.90
16513;DHT22;8369;48.030;11.598;2023-02-23T05:57:56;5.80;99.90
16513;DHT22;8369;48.030;11.598;2023-02-23T06:00:23;5.70;99.90
16513;DHT22;8369;48.030;11.598;2023-02-23T06:02:49;5.80;99.90
16513;DHT22;8369;48.030;11.598;2023-02-23T06:05:17;5.70;99.90
16513;DHT22;8369;48.030;11.598;2023-02-23T06:07:43;5.70;99.90
16513;DHT22;8369;48.030;11.598;2023-02-23T06:10:09;5.70;99.90
16513;DHT22;8369;48.030;11.598;2023-02-23T06:12:35;5.80;99.90
16513;DHT22;8369;48.030;11.598;2023-02-23T06:15:01;5.80;99.90
16513;DHT22;8369;48.030;11.598;2023-02-23T06:17:27;5.80;99.90
16513;DHT22;8369;48.030;11.598;2023-02-23T06:19:53;5.80;99.90
16513;DHT22;8369;48.030;11.598;2023-02-23T06:22:19;5.80;99.90
16513;DHT22;8369;48.030;11.598;2023-02-23T06:24:45;5.80;99.90
16513;DHT22;8369;48.030;11.598;2023-02-23T06:27:11;5.80;99.90
16513;DHT22;8369;48.030;11.598;2023-02-23T06:29:38;5.80;99.90
16513;DHT22;8369;48.030;11.598;2023-02-23T06:32:04;5.80;99.90
16513;DHT22;8369;48.030;11.598;2023-02-23T06:34:30;5.80;99.90
16513;DHT22;8369;48.030;11.598;2023-02-23T06:36:59;5.80;99.90
16513;DHT22;8369;48.030;11.598;2023-02-23T06:39:25;5.90;99.90
16513;DHT22;8369;48.030;11.598;2023-02-23T06:41:51;5.90;99.90
16513;DHT22;8369;48.030;11.598;2023-02-23T06:44:17;5.90;99.90
16513;DHT22;8369;48.030;11.598;2023-02-23T06:46:43;5.90;99.90
16513;DHT22;8369;48.030;11.598;2023-02-23T06:49:10;5.90;99.90
16513;DHT22;8369;48.030;11.598;2023-02-23T06:51:36;6.00;99.90
16513;DHT22;8369;48.030;11.598;2023-02-23T06:54:04;6.00;99.90
16513;DHT22;8369;48.030;11.598;2023-02-23T06:56:30;6.00;99.90
16513;DHT22;8369;48.030;11.598;2023-02-23T06:58:56;6.00;99.90
16513;DHT22;8369;48.030;11.598;2023-02-23T07:01:22;6.10;99.90
16513;DHT22;8369;48.030;11.598;2023-02-23T07:03:48;6.10;99.90
16513;DHT22;8369;48.030;11.598;2023-02-23T07:06:14;6.10;99.90
16513;DHT22;8369;48.030;11.598;2023-02-23T07:08:40;6.20;99.90
16513;DHT22;8369;48.030;11.598;2023-02-23T07:11:11;6.20;99.90
16513;DHT22;8369;48.030;11.598;2023-02-23T07:13:38;6.20;99.90
16513;DHT22;8369;48.030;11.598;2023-02-23T07:16:06;6.30;99.90
16513;DHT22;8369;48.030;11.598;2023-02-23T07:18:31;6.30;99.90
16513;DHT22;8369;48.030;11.598;2023-02-23T07:20:57;6.30;99.90
16513;DHT22;8369;48.030;11.598;2023-02-23T07:23:23;6.40;99.90
16513;DHT22;8369;48.030;11.598;2023-02-23T07:25:51;6.40;99.90
16513;DHT22;8369;48.030;11.598;2023-02-23T07:28:17;6.40;99.90
16513;DHT22;8369;48.030;11.598;2023-02-23T07:30:43;6.40;99.90
16513;DHT22;8369;48.030;11.598;2023-02-23T07:33:09;6.50;99.90
16513;DHT22;8369;48.030;11.598;2023-02-23T07:35:37;6.50;99.90
16513;DHT22;8369;48.030;11.598;2023-02-23T07:38:03;6.60;99.90
16513;DHT22;8369;48.030;11.598;2023-02-23T07:40:30;6.60;99.90
16513;DHT22;8369;48.030;11.598;2023-02-23T07:42:55;6.60;99.90
16513;DHT22;8369;48.030;11.598;2023-02-23T07:45:21;6.70;99.90
16513;DHT22;8369;48.030;11.598;2023-02-23T07:47:49;6.70;99.90
16513;DHT22;8369;48.030;11.598;2023-02-23T07:50:15;6.80;99.90
16513;DHT22;8369;48.030;11.598;2023-02-23T07:52:42;6.80;99.90
16513;DHT22;8369;48.030;11.598;2023-02-23T07:55:09;6.80;99.90
16513;DHT22;8369;48.030;11.598;2023-02-23T07:57:37;6.90;99.90
16513;DHT22;8369;48.030;11.598;2023-02-23T08:00:07;6.90;99.90
16513;DHT22;8369;48.030;11.598;2023-02-23T08:02:33;6.90;99.90
16513;DHT22;8369;48.030;11.598;2023-02-23T08:05:00;7.00;99.90
16513;DHT22;8369;48.030;11.598;2023-02-23T08:07:26;7.00;99.90
16513;DHT22;8369;48.030;11.598;2023-02-23T08:09:52;7.00;99.90
16513;DHT22;8369;48.030;11.598;2023-02-23T08:12:18;7.10;99.90
16513;DHT22;8369;48.030;11.598;2023-02-23T08:14:44;7.10;99.90
16513;DHT22;8369;48.030;11.598;2023-02-23T08:17:10;7.10;99.90
16513;DHT22;8369;48.030;11.598;2023-02-23T08:19:36;7.20;99.90
16513;DHT22;8369;48.030;11.598;2023-02-23T08:22:03;7.20;99.90
16513;DHT22;8369;48.030;11.598;2023-02-23T08:24:29;7.30;99.90
16513;DHT22;8369;48.030;11.598;2023-02-23T08:27:00;7.30;99.90
16513;DHT22;8369;48.030;11.598;2023-02-23T08:29:26;7.40;99.90
16513;DHT22;8369;48.030;11.598;2023-02-23T08:31:52;7.50;99.90
16513;DHT22;8369;48.030;11.598;2023-02-23T08:34:19;7.60;99.90
16513;DHT22;8369;48.030;11.598;2023-02-23T08:36:48;7.60;99.90
16513;DHT22;8369;48.030;11.598;2023-02-23T08:39:14;7.70;99.90
16513;DHT22;8369;48.030;11.598;2023-02-23T08:41:40;7.70;99.90
16513;DHT22;8369;48.030;11.598;2023-02-23T08:44:06;7.80;99.90
16513;DHT22;8369;48.030;11.598;2023-02-23T08:46:32;7.90;99.90
16513;DHT22;8369;48.030;11.598;2023-02-23T08:48:59;7.90;99.90
16513;DHT22;8369;48.030;11.598;2023-02-23T08:51:25;8.00;99.90
16513;DHT22;8369;48.030;11.598;2023-02-23T08:53:51;8.10;99.90
16513;DHT22;8369;48.030;11.598;2023-02-23T08:56:17;8.10;99.90
16513;DHT22;8369;48.030;11.598;2023-02-23T08:58:43;8.20;99.90
16513;DHT22;8369;48.030;11.598;2023-02-23T09:01:18;8.30;99.90
16513;DHT22;8369;48.030;11.598;2023-02-23T09:03:45;8.30;99.90
16513;DHT22;8369;48.030;11.598;2023-02-23T09:06:14;8.40;99.90
16513;DHT22;8369;48.030;11.598;2023-02-23T09:08:40;8.40;99.90
16513;DHT22;8369;48.030;11.598;2023-02-23T09:11:07;8.40;99.90
16513;DHT22;8369;48.030;11.598;2023-02-23T09:13:33;8.50;99.90
16513;DHT22;8369;48.030;11.598;2023-02-23T09:15:59;8.50;99.90
16513;DHT22;8369;48.030;11.598;2023-02-23T09:18:24;8.60;99.90
16513;DHT22;8369;48.030;11.598;2023-02-23T09:20:52;8.70;99.90
16513;DHT22;8369;48.030;11.598;2023-02-23T09:23:18;8.70;99.90
16513;DHT22;8369;48.030;11.598;2023-02-23T09:25:48;8.80;99.90
16513;DHT22;8369;48.030;11.598;2023-02-23T09:28:16;8.80;99.90
16513;DHT22;8369;48.030;11.598;2023-02-23T09:30:43;8.80;99.90
16513;DHT22;8369;48.030;11.598;2023-02-23T09:33:09;8.90;99.90
16513;DHT22;8369;48.030;11.598;2023-02-23T09:35:35;9.00;99.90
16513;DHT22;8369;48.030;11.598;2023-02-23T09:38:04;9.00;99.90
16513;DHT22;8369;48.030;11.598;2023-02-23T09:48:29;9.20;99.90
16513;DHT22;8369;48.030;11.598;2023-02-23T09:50:56;9.20;99.90
16513;DHT22;8369;48.030;11.598;2023-02-23T09:53:33;9.30;99.90
16513;DHT22;8369;48.030;11.598;2023-02-23T09:56:10;9.40;99.90
16513;DHT22;8369;48.030;11.598;2023-02-23T09:58:37;9.40;99.90
16513;DHT22;8369;48.030;11.598;2023-02-23T10:01:29;9.50;99.90
16513;DHT22;8369;48.030;11.598;2023-02-23T10:04:19;9.50;99.90
16513;DHT22;8369;48.030;11.598;2023-02-23T10:07:08;9.60;99.90
16513;DHT22;8369;48.030;11.598;2023-02-23T10:21:04;10.10;99.90
16513;DHT22;8369;48.030;11.598;2023-02-23T10:23:45;10.10;99.90
16513;DHT22;8369;48.030;11.598;2023-02-23T10:26:26;10.20;99.90
16513;DHT22;8369;48.030;11.598;2023-02-23T10:28:54;10.30;99.90
16513;DHT22;8369;48.030;11.598;2023-02-23T10:31:39;10.40;99.90
16513;DHT22;8369;48.030;11.598;2023-02-23T10:34:15;10.40;99.90
16513;DHT22;8369;48.030;11.598;2023-02-23T10:36:56;10.50;99.90
16513;DHT22;8369;48.030;11.598;2023-02-23T10:39:23;10.50;99.90
16513;DHT22;8369;48.030;11.598;2023-02-23T10:41:50;10.50;99.90
16513;DHT22;8369;48.030;11.598;2023-02-23T10:44:22;10.60;99.90
16513;DHT22;8369;48.030;11.598;2023-02-23T10:49:23;10.60;99.90
16513;DHT22;8369;48.030;11.598;2023-02-23T10:51:51;10.60;99.90
16513;DHT22;8369;48.030;11.598;2023-02-23T10:54:50;10.70;99.90
16513;DHT22;8369;48.030;11.598;2023-02-23T10:57:25;10.70;99.90
16513;DHT22;8369;48.030;11.598;2023-02-23T11:02:35;10.70;99.90
16513;DHT22;8369;48.030;11.598;2023-02-23T11:05:02;10.70;99.90
16513;DHT22;8369;48.030;11.598;2023-02-23T11:07:31;10.70;99.90
16513;DHT22;8369;48.030;11.598;2023-02-23T11:09:59;10.70;99.90
16513;DHT22;8369;48.030;11.598;2023-02-23T11:12:43;10.80;99.90
16513;DHT22;8369;48.030;11.598;2023-02-23T11:17:59;10.90;99.90
16513;DHT22;8369;48.030;11.598;2023-02-23T11:20:37;11.00;99.90
16513;DHT22;8369;48.030;11.598;2023-02-23T11:23:22;11.00;99.90
16513;DHT22;8369;48.030;11.598;2023-02-23T11:25:51;11.00;99.90
16513;DHT22;8369;48.030;11.598;2023-02-23T11:28:39;11.00;99.90
16513;DHT22;8369;48.030;11.598;2023-02-23T11:31:16;10.90;99.90
16513;DHT22;8369;48.030;11.598;2023-02-23T11:33:44;10.90;99.90
16513;DHT22;8369;48.030;11.598;2023-02-23T11:36:24;11.00;99.90
16513;DHT22;8369;48.030;11.598;2023-02-23T11:39:18;11.00;99.90
16513;DHT22;8369;48.030;11.598;2023-02-23T11:41:44;11.00;99.90
16513;DHT22;8369;48.030;11.598;2023-02-23T11:44:19;11.10;99.90
16513;DHT22;8369;48.030;11.598;2023-02-23T11:46:46;11.10;99.90
16513;DHT22;8369;48.030;11.598;2023-02-23T11:49:18;11.10;99.90
16513;DHT22;8369;48.030;11.598;2023-02-23T11:51:47;11.20;99.90
16513;DHT22;8369;48.030;11.598;2023-02-23T11:54:28;11.20;99.90
16513;DHT22;8369;48.030;11.598;2023-02-23T11:56:56;11.20;99.90
16513;DHT22;8369;48.030;11.598;2023-02-23T11:59:37;11.20;99.90
16513;DHT22;8369;48.030;11.598;2023-02-23T12:04:44;11.10;99.90
16513;DHT22;8369;48.030;11.598;2023-02-23T12:10:23;11.20;99.90
16513;DHT22;8369;48.030;11.598;2023-02-23T12:13:40;11.30;99.90
16513;DHT22;8369;48.030;11.598;2023-02-23T12:18:31;11.30;99.90
16513;DHT22;8369;48.030;11.598;2023-02-23T12:23:59;11.40;99.90
16513;DHT22;8369;48.030;11.598;2023-02-23T12:26:30;11.40;99.90
16513;DHT22;8369;48.030;11.598;2023-02-23T12:31:51;11.40;99.90
16513;DHT22;8369;48.030;11.598;2023-02-23T12:34:27;11.40;99.90
16513;DHT22;8369;48.030;11.598;2023-02-23T12:37:26;11.40;99.90
16513;DHT22;8369;48.030;11.598;2023-02-23T12:40:21;11.40;99.90
16513;DHT22;8369;48.030;11.598;2023-02-23T12:42:57;11.40;99.90
16513;DHT22;8369;48.030;11.598;2023-02-23T12:48:17;11.40;99.90
16513;DHT22;8369;48.030;11.598;2023-02-23T12:50:52;11.40;99.90
16513;DHT22;8369;48.030;11.598;2023-02-23T12:53:40;11.50;99.90
16513;DHT22;8369;48.030;11.598;2023-02-23T12:58:57;11.50;99.90
16513;DHT22;8369;48.030;11.598;2023-02-23T13:09:38;11.60;99.90
16513;DHT22;8369;48.030;11.598;2023-02-23T13:23:07;11.60;99.90
16513;DHT22;8369;48.030;11.598;2023-02-23T13:25:38;11.50;99.90
16513;DHT22;8369;48.030;11.598;2023-02-23T13:28:07;11.50;99.90
16513;DHT22;8369;48.030;11.598;2023-02-23T13:30:39;11.50;99.90
16513;DHT22;8369;48.030;11.598;2023-02-23T13:33:33;11.50;99.90
16513;DHT22;8369;48.030;11.598;2023-02-23T13:36:01;11.50;99.90
16513;DHT22;8369;48.030;11.598;2023-02-23T13:44:18;11.30;99.90
16513;DHT22;8369;48.030;11.598;2023-02-23T13:46:59;11.30;99.90
16513;DHT22;8369;48.030;11.598;2023-02-23T13:49:48;11.40;99.90
16513;DHT22;8369;48.030;11.598;2023-02-23T13:54:57;11.30;99.90
16513;DHT22;8369;48.030;11.598;2023-02-23T13:57:29;11.20;99.90
16513;DHT22;8369;48.030;11.598;2023-02-23T13:59:58;11.20;99.90
16513;DHT22;8369;48.030;11.598;2023-02-23T14:02:38;11.20;99.90
16513;DHT22;8369;48.030;11.598;2023-02-23T14:05:25;11.20;99.90
16513;DHT22;8369;48.030;11.598;2023-02-23T14:07:58;11.20;99.90
16513;DHT22;8369;48.030;11.598;2023-02-23T14:10:34;11.10;99.90
16513;DHT22;8369;48.030;11.598;2023-02-23T14:13:26;11.10;99.90
16513;DHT22;8369;48.030;11.598;2023-02-23T14:16:18;11.10;99.90
16513;DHT22;8369;48.030;11.598;2023-02-23T14:19:11;11.10;99.90
16513;DHT22;8369;48.030;11.598;2023-02-23T14:21:58;11.10;99.90
16513;DHT22;8369;48.030;11.598;2023-02-23T14:24:26;11.10;99.90
16513;DHT22;8369;48.030;11.598;2023-02-23T14:29:41;11.10;99.90
16513;DHT22;8369;48.030;11.598;2023-02-23T14:34:57;11.10;99.90
16513;DHT22;8369;48.030;11.598;2023-02-23T14:39:53;11.10;99.90
16513;DHT22;8369;48.030;11.598;2023-02-23T14:42:26;11.10;99.90
16513;DHT22;8369;48.030;11.598;2023-02-23T14:44:55;11.10;99.90
16513;DHT22;8369;48.030;11.598;2023-02-23T14:47:25;11.10;99.90
16513;DHT22;8369;48.030;11.598;2023-02-23T14:50:00;11.20;99.90
16513;DHT22;8369;48.030;11.598;2023-02-23T14:52:35;11.20;99.90
16513;DHT22;8369;48.030;11.598;2023-02-23T14:57:42;11.20;99.90
16513;DHT22;8369;48.030;11.598;2023-02-23T15:00:32;11.10;99.90
16513;DHT22;8369;48.030;11.598;2023-02-23T15:03:10;11.10;99.90
16513;DHT22;8369;48.030;11.598;2023-02-23T15:08:12;11.10;99.90
16513;DHT22;8369;48.030;11.598;2023-02-23T15:10:42;11.10;99.90
16513;DHT22;8369;48.030;11.598;2023-02-23T15:13:19;11.10;99.90
16513;DHT22;8369;48.030;11.598;2023-02-23T15:15:51;11.00;99.90
16513;DHT22;8369;48.030;11.598;2023-02-23T15:21:41;10.90;99.90
16513;DHT22;8369;48.030;11.598;2023-02-23T15:24:13;10.90;99.90
16513;DHT22;8369;48.030;11.598;2023-02-23T15:26:42;10.90;99.90
16513;DHT22;8369;48.030;11.598;2023-02-23T15:31:35;10.90;99.90
16513;DHT22;8369;48.030;11.598;2023-02-23T15:34:11;10.90;99.90
16513;DHT22;8369;48.030;11.598;2023-02-23T15:36:37;10.90;99.90
16513;DHT22;8369;48.030;11.598;2023-02-23T15:39:13;10.80;99.90
16513;DHT22;8369;48.030;11.598;2023-02-23T15:41:41;10.80;99.90
16513;DHT22;8369;48.030;11.598;2023-02-23T15:46:40;10.80;99.90
16513;DHT22;8369;48.030;11.598;2023-02-23T15:49:11;10.70;99.90
16513;DHT22;8369;48.030;11.598;2023-02-23T15:51:51;10.70;99.90
16513;DHT22;8369;48.030;11.598;2023-02-23T15:54:51;10.70;99.90
16513;DHT22;8369;48.030;11.598;2023-02-23T15:57:25;10.70;99.90
16513;DHT22;8369;48.030;11.598;2023-02-23T15:59:56;10.70;99.90
16513;DHT22;8369;48.030;11.598;2023-02-23T16:02:24;10.70;99.90
16513;DHT22;8369;48.030;11.598;2023-02-23T16:04:51;10.60;99.90
16513;DHT22;8369;48.030;11.598;2023-02-23T16:07:20;10.60;99.90
16513;DHT22;8369;48.030;11.598;2023-02-23T16:12:48;10.60;99.90
16513;DHT22;8369;48.030;11.598;2023-02-23T16:15:26;10.60;99.90
16513;DHT22;8369;48.030;11.598;2023-02-23T16:18:02;10.60;99.90
16513;DHT22;8369;48.030;11.598;2023-02-23T16:23:04;10.50;99.90
16513;DHT22;8369;48.030;11.598;2023-02-23T16:25:32;10.50;99.90
16513;DHT22;8369;48.030;11.598;2023-02-23T16:28:20;10.50;99.90
16513;DHT22;8369;48.030;11.598;2023-02-23T16:33:25;10.40;99.90
16513;DHT22;8369;48.030;11.598;2023-02-23T16:36:15;10.40;99.90
16513;DHT22;8369;48.030;11.598;2023-02-23T16:38:41;10.30;99.90
16513;DHT22;8369;48.030;11.598;2023-02-23T16:41:18;10.30;99.90
16513;DHT22;8369;48.030;11.598;2023-02-23T16:43:48;10.30;99.90
16513;DHT22;8369;48.030;11.598;2023-02-23T16:46:16;10.30;99.90
16513;DHT22;8369;48.030;11.598;2023-02-23T16:48:42;10.20;99.90
16513;DHT22;8369;48.030;11.598;2023-02-23T16:51:17;10.20;99.90
16513;DHT22;8369;48.030;11.598;2023-02-23T16:53:44;10.20;99.90
16513;DHT22;8369;48.030;11.598;2023-02-23T16:56:17;10.10;99.90
16513;DHT22;8369;48.030;11.598;2023-02-23T16:58:59;10.10;99.90
16513;DHT22;8369;48.030;11.598;2023-02-23T17:01:25;10.10;99.90
16513;DHT22;8369;48.030;11.598;2023-02-23T17:03:52;10.10;99.90
16513;DHT22;8369;48.030;11.598;2023-02-23T17:06:20;10.00;99.90
16513;DHT22;8369;48.030;11.598;2023-02-23T17:08:47;10.00;99.90
16513;DHT22;8369;48.030;11.598;2023-02-23T17:11:14;10.00;99.90
16513;DHT22;8369;48.030;11.598;2023-02-23T17:13:40;9.90;99.90
16513;DHT22;8369;48.030;11.598;2023-02-23T17:16:11;9.90;99.90
16513;DHT22;8369;48.030;11.598;2023-02-23T17:18:38;9.80;99.90
16513;DHT22;8369;48.030;11.598;2023-02-23T17:21:08;9.80;99.90
16513;DHT22;8369;48.030;11.598;2023-02-23T17:23:37;9.80;99.90
16513;DHT22;8369;48.030;11.598;2023-02-23T17:26:09;9.70;99.90
16513;DHT22;8369;48.030;11.598;2023-02-23T17:28:37;9.70;99.90
16513;DHT22;8369;48.030;11.598;2023-02-23T17:31:04;9.60;99.90
16513;DHT22;8369;48.030;11.598;2023-02-23T17:33:31;9.60;99.90
16513;DHT22;8369;48.030;11.598;2023-02-23T17:35:59;9.50;99.90
16513;DHT22;8369;48.030;11.598;2023-02-23T17:38:26;9.50;99.90
16513;DHT22;8369;48.030;11.598;2023-02-23T17:41:06;9.40;99.90
16513;DHT22;8369;48.030;11.598;2023-02-23T17:43:34;9.40;99.90
16513;DHT22;8369;48.030;11.598;2023-02-23T17:46:00;9.30;99.90
16513;DHT22;8369;48.030;11.598;2023-02-23T17:48:27;9.30;99.90
16513;DHT22;8369;48.030;11.598;2023-02-23T17:51:03;9.20;99.90
16513;DHT22;8369;48.030;11.598;2023-02-23T17:53:30;9.20;99.90
16513;DHT22;8369;48.030;11.598;2023-02-23T17:55:56;9.10;99.90
16513;DHT22;8369;48.030;11.598;2023-02-23T17:58:23;9.00;99.90
16513;DHT22;8369;48.030;11.598;2023-02-23T18:00:57;9.00;99.90
16513;DHT22;8369;48.030;11.598;2023-02-23T18:03:24;8.90;99.90
16513;DHT22;8369;48.030;11.598;2023-02-23T18:06:02;8.80;99.90
16513;DHT22;8369;48.030;11.598;2023-02-23T18:08:28;8.80;99.90
16513;DHT22;8369;48.030;11.598;2023-02-23T18:10:55;8.70;99.90
16513;DHT22;8369;48.030;11.598;2023-02-23T18:13:25;8.60;99.90
16513;DHT22;8369;48.030;11.598;2023-02-23T18:15:54;8.50;99.90
16513;DHT22;8369;48.030;11.598;2023-02-23T18:18:21;8.40;99.90
16513;DHT22;8369;48.030;11.598;2023-02-23T18:20:58;8.40;99.90
16513;DHT22;8369;48.030;11.598;2023-02-23T18:23:28;8.30;99.90
16513;DHT22;8369;48.030;11.598;2023-02-23T18:26:08;8.20;99.90
16513;DHT22;8369;48.030;11.598;2023-02-23T18:28:35;8.10;99.90
16513;DHT22;8369;48.030;11.598;2023-02-23T18:31:03;8.10;99.90
16513;DHT22;8369;48.030;11.598;2023-02-23T18:33:29;8.00;99.90